Pagina principale
METAR-TAF:

METAR-TAF

Aeroporti :

Sylacauga, Alabama, Stati Uniti

latitudine: 33-10-19N, longitudine: 086-18-20W, altezza: 173 m

Osservazione

Il bollettino è stato emesso 16 minuti fa, alle 14:15 UTC
Vento 4 kt da nord
Temperature 11°C
Umidità 66%
Pressione 1021 hPa
Visibilità: 16.1 km
Cielo coperto ad un'altezza di 2800 ft

METAR: KSCD 261415Z AUTO 35004KT 10SM OVC028 11/05 A3015 RMK AO2 T01130051

Ora: 09:31 (14:31 UTC)


TAF: mancante

Osservazioni e previsioni meteorologiche di più di 4000 aeroporti (messaggi METAR e TAF).

Le stazioni disponibili sono rappresentate dai dischi gialli e rossi sulla carta.

Puntare il mouse per vedere il nome della stazione.

Clicca sopra per visualizzare le osservazioni e previsioni meteorologiche.

Per cambiare la mappa : fare clic sui pulsanti verdi con una croce nera per ingrandire, il pulsante verde con un trattino per diminuire, o sulla freccia verde per le mappe adiacenti.


METAR-TAF: